sensor_id;sensor_type;location;lat;lon;timestamp;P1;durP1;ratioP1;P2;durP2;ratioP2
10005;SDS011;5042;42.626;23.382;2024-02-23T00:00:27;17.03;;;14.10;;
10005;SDS011;5042;42.626;23.382;2024-02-23T00:02:54;17.37;;;14.07;;
10005;SDS011;5042;42.626;23.382;2024-02-23T00:05:23;20.77;;;14.07;;
10005;SDS011;5042;42.626;23.382;2024-02-23T00:07:51;19.23;;;14.73;;
10005;SDS011;5042;42.626;23.382;2024-02-23T00:10:18;19.57;;;14.57;;
10005;SDS011;5042;42.626;23.382;2024-02-23T00:12:45;16.83;;;14.10;;
10005;SDS011;5042;42.626;23.382;2024-02-23T00:15:12;17.37;;;13.60;;
10005;SDS011;5042;42.626;23.382;2024-02-23T00:17:39;17.20;;;13.73;;
10005;SDS011;5042;42.626;23.382;2024-02-23T00:20:08;15.50;;;13.07;;
10005;SDS011;5042;42.626;23.382;2024-02-23T00:22:37;19.80;;;13.57;;
10005;SDS011;5042;42.626;23.382;2024-02-23T00:25:05;18.63;;;13.30;;
10005;SDS011;5042;42.626;23.382;2024-02-23T00:27:32;16.60;;;13.07;;
10005;SDS011;5042;42.626;23.382;2024-02-23T00:29:59;15.13;;;12.80;;
10005;SDS011;5042;42.626;23.382;2024-02-23T00:32:26;15.50;;;12.67;;
10005;SDS011;5042;42.626;23.382;2024-02-23T00:34:53;17.57;;;12.50;;
10005;SDS011;5042;42.626;23.382;2024-02-23T00:37:20;17.00;;;12.07;;
10005;SDS011;5042;42.626;23.382;2024-02-23T00:39:47;16.10;;;12.13;;
10005;SDS011;5042;42.626;23.382;2024-02-23T00:42:15;16.27;;;12.43;;
10005;SDS011;5042;42.626;23.382;2024-02-23T00:44:42;16.87;;;13.20;;
10005;SDS011;5042;42.626;23.382;2024-02-23T00:47:09;15.80;;;12.87;;
10005;SDS011;5042;42.626;23.382;2024-02-23T00:49:36;16.77;;;12.37;;
10005;SDS011;5042;42.626;23.382;2024-02-23T00:52:03;17.00;;;12.80;;
10005;SDS011;5042;42.626;23.382;2024-02-23T00:54:30;15.43;;;12.73;;
10005;SDS011;5042;42.626;23.382;2024-02-23T00:56:57;18.07;;;13.43;;
10005;SDS011;5042;42.626;23.382;2024-02-23T00:59:25;16.03;;;12.10;;
10005;SDS011;5042;42.626;23.382;2024-02-23T01:01:54;18.37;;;12.73;;
10005;SDS011;5042;42.626;23.382;2024-02-23T01:04:21;17.23;;;13.50;;
10005;SDS011;5042;42.626;23.382;2024-02-23T01:06:48;16.37;;;12.93;;
10005;SDS011;5042;42.626;23.382;2024-02-23T01:09:15;17.83;;;12.97;;
10005;SDS011;5042;42.626;23.382;2024-02-23T01:11:45;18.17;;;13.27;;
10005;SDS011;5042;42.626;23.382;2024-02-23T01:14:12;16.53;;;12.87;;
10005;SDS011;5042;42.626;23.382;2024-02-23T01:16:40;16.47;;;13.27;;
10005;SDS011;5042;42.626;23.382;2024-02-23T01:19:07;16.23;;;13.00;;
10005;SDS011;5042;42.626;23.382;2024-02-23T01:21:34;16.93;;;12.47;;
10005;SDS011;5042;42.626;23.382;2024-02-23T01:24:01;14.50;;;12.50;;
10005;SDS011;5042;42.626;23.382;2024-02-23T01:26:29;17.00;;;13.30;;
10005;SDS011;5042;42.626;23.382;2024-02-23T01:28:56;14.70;;;12.17;;
10005;SDS011;5042;42.626;23.382;2024-02-23T01:31:23;16.27;;;12.20;;
10005;SDS011;5042;42.626;23.382;2024-02-23T01:33:51;15.47;;;12.30;;
10005;SDS011;5042;42.626;23.382;2024-02-23T01:36:18;16.87;;;12.77;;
10005;SDS011;5042;42.626;23.382;2024-02-23T01:38:45;14.87;;;12.27;;
10005;SDS011;5042;42.626;23.382;2024-02-23T01:41:12;14.73;;;11.80;;
10005;SDS011;5042;42.626;23.382;2024-02-23T01:43:39;14.23;;;11.53;;
10005;SDS011;5042;42.626;23.382;2024-02-23T01:46:06;14.80;;;12.37;;
10005;SDS011;5042;42.626;23.382;2024-02-23T01:48:33;15.43;;;12.37;;
10005;SDS011;5042;42.626;23.382;2024-02-23T01:51:01;16.40;;;11.90;;
10005;SDS011;5042;42.626;23.382;2024-02-23T01:53:28;12.57;;;11.27;;
10005;SDS011;5042;42.626;23.382;2024-02-23T01:55:56;14.20;;;11.40;;
10005;SDS011;5042;42.626;23.382;2024-02-23T01:58:25;16.83;;;11.77;;
10005;SDS011;5042;42.626;23.382;2024-02-23T02:00:52;14.10;;;11.33;;
10005;SDS011;5042;42.626;23.382;2024-02-23T02:03:19;14.93;;;12.47;;
10005;SDS011;5042;42.626;23.382;2024-02-23T02:05:46;15.97;;;11.57;;
10005;SDS011;5042;42.626;23.382;2024-02-23T02:08:16;15.40;;;11.60;;
10005;SDS011;5042;42.626;23.382;2024-02-23T02:10:43;13.10;;;11.63;;
10005;SDS011;5042;42.626;23.382;2024-02-23T02:13:11;15.07;;;11.90;;
10005;SDS011;5042;42.626;23.382;2024-02-23T02:15:38;13.33;;;10.90;;
10005;SDS011;5042;42.626;23.382;2024-02-23T02:18:05;15.70;;;11.97;;
10005;SDS011;5042;42.626;23.382;2024-02-23T02:20:32;16.83;;;12.03;;
10005;SDS011;5042;42.626;23.382;2024-02-23T02:22:59;16.70;;;12.33;;
10005;SDS011;5042;42.626;23.382;2024-02-23T02:25:28;15.87;;;12.30;;
10005;SDS011;5042;42.626;23.382;2024-02-23T02:27:55;14.43;;;11.57;;
10005;SDS011;5042;42.626;23.382;2024-02-23T02:30:22;16.30;;;11.77;;
10005;SDS011;5042;42.626;23.382;2024-02-23T02:32:49;15.47;;;11.83;;
10005;SDS011;5042;42.626;23.382;2024-02-23T02:35:15;14.80;;;11.83;;
10005;SDS011;5042;42.626;23.382;2024-02-23T02:37:42;14.87;;;12.27;;
10005;SDS011;5042;42.626;23.382;2024-02-23T02:40:10;14.60;;;11.63;;
10005;SDS011;5042;42.626;23.382;2024-02-23T02:42:38;15.67;;;11.67;;
10005;SDS011;5042;42.626;23.382;2024-02-23T02:45:05;16.90;;;12.10;;
10005;SDS011;5042;42.626;23.382;2024-02-23T02:47:33;15.60;;;11.67;;
10005;SDS011;5042;42.626;23.382;2024-02-23T02:50:01;13.80;;;11.73;;
10005;SDS011;5042;42.626;23.382;2024-02-23T02:52:29;13.73;;;11.87;;
10005;SDS011;5042;42.626;23.382;2024-02-23T02:54:56;14.63;;;12.10;;
10005;SDS011;5042;42.626;23.382;2024-02-23T02:57:23;15.60;;;11.90;;
10005;SDS011;5042;42.626;23.382;2024-02-23T02:59:51;14.33;;;11.53;;
10005;SDS011;5042;42.626;23.382;2024-02-23T03:02:18;15.47;;;12.43;;
10005;SDS011;5042;42.626;23.382;2024-02-23T03:04:48;15.03;;;11.90;;
10005;SDS011;5042;42.626;23.382;2024-02-23T03:07:16;14.23;;;11.60;;
10005;SDS011;5042;42.626;23.382;2024-02-23T03:09:43;14.90;;;11.83;;
10005;SDS011;5042;42.626;23.382;2024-02-23T03:12:10;14.43;;;11.50;;
10005;SDS011;5042;42.626;23.382;2024-02-23T03:14:37;15.03;;;11.77;;
10005;SDS011;5042;42.626;23.382;2024-02-23T03:17:06;14.17;;;10.77;;
10005;SDS011;5042;42.626;23.382;2024-02-23T03:19:34;14.90;;;11.23;;
10005;SDS011;5042;42.626;23.382;2024-02-23T03:22:01;13.20;;;11.07;;
10005;SDS011;5042;42.626;23.382;2024-02-23T03:24:28;13.67;;;10.90;;
10005;SDS011;5042;42.626;23.382;2024-02-23T03:26:55;12.90;;;10.27;;
10005;SDS011;5042;42.626;23.382;2024-02-23T03:29:22;13.77;;;11.00;;
10005;SDS011;5042;42.626;23.382;2024-02-23T03:31:49;12.77;;;10.73;;
10005;SDS011;5042;42.626;23.382;2024-02-23T03:34:18;14.43;;;11.40;;
10005;SDS011;5042;42.626;23.382;2024-02-23T03:36:45;16.53;;;10.93;;
10005;SDS011;5042;42.626;23.382;2024-02-23T03:39:12;12.10;;;10.53;;
10005;SDS011;5042;42.626;23.382;2024-02-23T03:41:39;14.53;;;11.10;;
10005;SDS011;5042;42.626;23.382;2024-02-23T03:44:06;13.60;;;10.70;;
10005;SDS011;5042;42.626;23.382;2024-02-23T03:46:33;14.83;;;11.50;;
10005;SDS011;5042;42.626;23.382;2024-02-23T03:49:01;12.67;;;10.50;;
10005;SDS011;5042;42.626;23.382;2024-02-23T03:51:30;12.33;;;10.60;;
10005;SDS011;5042;42.626;23.382;2024-02-23T03:53:58;14.07;;;10.63;;
10005;SDS011;5042;42.626;23.382;2024-02-23T03:56:25;13.37;;;11.23;;
10005;SDS011;5042;42.626;23.382;2024-02-23T03:58:51;13.80;;;11.03;;
10005;SDS011;5042;42.626;23.382;2024-02-23T04:01:18;14.07;;;11.13;;
10005;SDS011;5042;42.626;23.382;2024-02-23T04:03:45;15.50;;;11.40;;
10005;SDS011;5042;42.626;23.382;2024-02-23T04:06:12;14.17;;;11.53;;
10005;SDS011;5042;42.626;23.382;2024-02-23T04:08:41;14.90;;;10.73;;
10005;SDS011;5042;42.626;23.382;2024-02-23T04:11:08;14.33;;;11.63;;
10005;SDS011;5042;42.626;23.382;2024-02-23T04:13:34;13.27;;;11.20;;
10005;SDS011;5042;42.626;23.382;2024-02-23T04:16:01;14.17;;;11.03;;
10005;SDS011;5042;42.626;23.382;2024-02-23T04:18:28;14.17;;;11.23;;
10005;SDS011;5042;42.626;23.382;2024-02-23T04:20:56;11.43;;;9.53;;
10005;SDS011;5042;42.626;23.382;2024-02-23T04:23:23;15.90;;;11.20;;
10005;SDS011;5042;42.626;23.382;2024-02-23T04:25:52;13.63;;;10.57;;
10005;SDS011;5042;42.626;23.382;2024-02-23T04:28:19;14.97;;;11.83;;
10005;SDS011;5042;42.626;23.382;2024-02-23T04:30:46;13.17;;;10.63;;
10005;SDS011;5042;42.626;23.382;2024-02-23T04:33:13;13.20;;;11.00;;
10005;SDS011;5042;42.626;23.382;2024-02-23T04:35:40;14.37;;;10.43;;
10005;SDS011;5042;42.626;23.382;2024-02-23T04:38:07;13.00;;;10.10;;
10005;SDS011;5042;42.626;23.382;2024-02-23T04:40:34;12.77;;;9.87;;
10005;SDS011;5042;42.626;23.382;2024-02-23T04:43:02;11.23;;;10.10;;
10005;SDS011;5042;42.626;23.382;2024-02-23T04:45:29;12.70;;;9.90;;
10005;SDS011;5042;42.626;23.382;2024-02-23T04:47:56;12.70;;;9.97;;
10005;SDS011;5042;42.626;23.382;2024-02-23T04:50:23;13.13;;;10.10;;
10005;SDS011;5042;42.626;23.382;2024-02-23T04:52:49;13.50;;;10.70;;
10005;SDS011;5042;42.626;23.382;2024-02-23T04:55:16;13.50;;;10.33;;
10005;SDS011;5042;42.626;23.382;2024-02-23T04:57:43;13.47;;;10.90;;
10005;SDS011;5042;42.626;23.382;2024-02-23T05:00:12;12.97;;;10.53;;
10005;SDS011;5042;42.626;23.382;2024-02-23T05:02:39;13.37;;;10.73;;
10005;SDS011;5042;42.626;23.382;2024-02-23T05:05:06;14.37;;;11.40;;
10005;SDS011;5042;42.626;23.382;2024-02-23T05:07:33;12.70;;;10.37;;
10005;SDS011;5042;42.626;23.382;2024-02-23T05:10:00;17.43;;;10.13;;
10005;SDS011;5042;42.626;23.382;2024-02-23T05:12:29;13.27;;;10.63;;
10005;SDS011;5042;42.626;23.382;2024-02-23T05:14:56;14.17;;;11.13;;
10005;SDS011;5042;42.626;23.382;2024-02-23T05:17:24;14.80;;;10.87;;
10005;SDS011;5042;42.626;23.382;2024-02-23T05:19:51;14.90;;;11.00;;
10005;SDS011;5042;42.626;23.382;2024-02-23T05:22:18;14.00;;;10.97;;
10005;SDS011;5042;42.626;23.382;2024-02-23T05:24:45;12.83;;;10.40;;
10005;SDS011;5042;42.626;23.382;2024-02-23T05:27:12;15.03;;;11.30;;
10005;SDS011;5042;42.626;23.382;2024-02-23T05:29:39;15.30;;;11.07;;
10005;SDS011;5042;42.626;23.382;2024-02-23T05:32:06;14.73;;;11.23;;
10005;SDS011;5042;42.626;23.382;2024-02-23T05:34:34;17.30;;;11.87;;
10005;SDS011;5042;42.626;23.382;2024-02-23T05:37:01;14.23;;;11.10;;
10005;SDS011;5042;42.626;23.382;2024-02-23T05:39:29;18.13;;;11.43;;
10005;SDS011;5042;42.626;23.382;2024-02-23T05:41:56;14.87;;;11.80;;
10005;SDS011;5042;42.626;23.382;2024-02-23T05:44:24;16.00;;;10.63;;
10005;SDS011;5042;42.626;23.382;2024-02-23T05:46:51;15.50;;;11.03;;
10005;SDS011;5042;42.626;23.382;2024-02-23T05:49:18;14.70;;;12.03;;
10005;SDS011;5042;42.626;23.382;2024-02-23T05:51:47;16.27;;;12.10;;
10005;SDS011;5042;42.626;23.382;2024-02-23T05:54:13;14.07;;;12.00;;
10005;SDS011;5042;42.626;23.382;2024-02-23T05:56:40;17.77;;;12.17;;
10005;SDS011;5042;42.626;23.382;2024-02-23T05:59:07;14.93;;;11.77;;
10005;SDS011;5042;42.626;23.382;2024-02-23T06:01:34;16.57;;;11.23;;
10005;SDS011;5042;42.626;23.382;2024-02-23T06:04:01;14.40;;;11.53;;
10005;SDS011;5042;42.626;23.382;2024-02-23T06:06:28;16.27;;;11.40;;
10005;SDS011;5042;42.626;23.382;2024-02-23T06:08:57;17.10;;;12.33;;
10005;SDS011;5042;42.626;23.382;2024-02-23T06:11:25;13.23;;;10.97;;
10005;SDS011;5042;42.626;23.382;2024-02-23T06:13:52;14.43;;;11.50;;
10005;SDS011;5042;42.626;23.382;2024-02-23T06:16:19;17.70;;;11.93;;
10005;SDS011;5042;42.626;23.382;2024-02-23T06:18:46;14.20;;;11.50;;
10005;SDS011;5042;42.626;23.382;2024-02-23T06:21:16;13.00;;;11.27;;
10005;SDS011;5042;42.626;23.382;2024-02-23T06:23:44;18.40;;;12.43;;
10005;SDS011;5042;42.626;23.382;2024-02-23T06:26:13;15.47;;;11.30;;
10005;SDS011;5042;42.626;23.382;2024-02-23T06:28:40;15.87;;;10.97;;
10005;SDS011;5042;42.626;23.382;2024-02-23T06:31:07;12.73;;;10.23;;
10005;SDS011;5042;42.626;23.382;2024-02-23T06:33:35;16.23;;;11.20;;
10005;SDS011;5042;42.626;23.382;2024-02-23T06:36:02;15.87;;;11.67;;
10005;SDS011;5042;42.626;23.382;2024-02-23T06:38:30;12.57;;;11.17;;
10005;SDS011;5042;42.626;23.382;2024-02-23T06:40:56;13.03;;;10.40;;
10005;SDS011;5042;42.626;23.382;2024-02-23T06:43:25;15.40;;;10.87;;
10005;SDS011;5042;42.626;23.382;2024-02-23T06:45:52;18.85;;;11.30;;
10005;SDS011;5042;42.626;23.382;2024-02-23T06:48:18;15.65;;;10.65;;
10005;SDS011;5042;42.626;23.382;2024-02-23T06:50:45;14.05;;;10.40;;
10005;SDS011;5042;42.626;23.382;2024-02-23T06:53:12;15.70;;;10.20;;
10005;SDS011;5042;42.626;23.382;2024-02-23T06:55:39;15.38;;;11.10;;
10005;SDS011;5042;42.626;23.382;2024-02-23T06:58:06;13.63;;;9.93;;
10005;SDS011;5042;42.626;23.382;2024-02-23T07:00:36;12.60;;;10.17;;
10005;SDS011;5042;42.626;23.382;2024-02-23T07:03:04;11.53;;;9.80;;
10005;SDS011;5042;42.626;23.382;2024-02-23T07:05:31;10.77;;;9.67;;
10005;SDS011;5042;42.626;23.382;2024-02-23T07:07:58;13.57;;;10.53;;
10005;SDS011;5042;42.626;23.382;2024-02-23T07:10:25;15.13;;;10.80;;
10005;SDS011;5042;42.626;23.382;2024-02-23T07:12:52;11.67;;;10.07;;
10005;SDS011;5042;42.626;23.382;2024-02-23T07:15:21;15.53;;;9.70;;
10005;SDS011;5042;42.626;23.382;2024-02-23T07:17:49;13.57;;;10.70;;
10005;SDS011;5042;42.626;23.382;2024-02-23T07:20:16;13.33;;;10.83;;
10005;SDS011;5042;42.626;23.382;2024-02-23T07:22:43;13.57;;;11.17;;
10005;SDS011;5042;42.626;23.382;2024-02-23T07:25:11;15.20;;;12.23;;
10005;SDS011;5042;42.626;23.382;2024-02-23T07:27:38;15.50;;;12.40;;
10005;SDS011;5042;42.626;23.382;2024-02-23T07:30:05;16.80;;;12.53;;
10005;SDS011;5042;42.626;23.382;2024-02-23T07:32:33;16.00;;;12.70;;
10005;SDS011;5042;42.626;23.382;2024-02-23T07:35:01;15.20;;;11.67;;
10005;SDS011;5042;42.626;23.382;2024-02-23T07:37:29;17.80;;;13.70;;
10005;SDS011;5042;42.626;23.382;2024-02-23T07:39:56;18.63;;;13.13;;
10005;SDS011;5042;42.626;23.382;2024-02-23T07:42:22;16.80;;;12.47;;
10005;SDS011;5042;42.626;23.382;2024-02-23T07:44:49;17.33;;;14.07;;
10005;SDS011;5042;42.626;23.382;2024-02-23T07:47:16;19.77;;;14.80;;
10005;SDS011;5042;42.626;23.382;2024-02-23T07:49:43;18.93;;;14.47;;
10005;SDS011;5042;42.626;23.382;2024-02-23T07:52:11;19.17;;;14.00;;
10005;SDS011;5042;42.626;23.382;2024-02-23T07:54:38;19.00;;;14.53;;
10005;SDS011;5042;42.626;23.382;2024-02-23T07:57:05;16.70;;;8.50;;
10005;SDS011;5042;42.626;23.382;2024-02-23T07:59:32;12.40;;;8.37;;
10005;SDS011;5042;42.626;23.382;2024-02-23T08:01:59;18.57;;;12.97;;
10005;SDS011;5042;42.626;23.382;2024-02-23T08:04:26;19.73;;;14.60;;
10005;SDS011;5042;42.626;23.382;2024-02-23T08:06:53;15.17;;;12.07;;
10005;SDS011;5042;42.626;23.382;2024-02-23T08:09:21;16.73;;;13.13;;
10005;SDS011;5042;42.626;23.382;2024-02-23T08:11:49;13.63;;;9.40;;
10005;SDS011;5042;42.626;23.382;2024-02-23T08:14:16;13.73;;;9.53;;
10005;SDS011;5042;42.626;23.382;2024-02-23T08:16:43;13.80;;;11.80;;
10005;SDS011;5042;42.626;23.382;2024-02-23T08:19:10;16.97;;;13.47;;
10005;SDS011;5042;42.626;23.382;2024-02-23T08:21:37;14.20;;;11.83;;
10005;SDS011;5042;42.626;23.382;2024-02-23T08:24:04;15.80;;;12.20;;
10005;SDS011;5042;42.626;23.382;2024-02-23T08:26:33;15.43;;;10.83;;
10005;SDS011;5042;42.626;23.382;2024-02-23T08:29:00;12.40;;;9.50;;
10005;SDS011;5042;42.626;23.382;2024-02-23T08:31:27;11.63;;;9.53;;
10005;SDS011;5042;42.626;23.382;2024-02-23T08:33:54;11.13;;;7.93;;
10005;SDS011;5042;42.626;23.382;2024-02-23T08:36:21;11.00;;;8.70;;
10005;SDS011;5042;42.626;23.382;2024-02-23T08:38:48;11.73;;;7.93;;
10005;SDS011;5042;42.626;23.382;2024-02-23T08:41:15;7.73;;;6.90;;
10005;SDS011;5042;42.626;23.382;2024-02-23T08:43:43;10.83;;;8.40;;
10005;SDS011;5042;42.626;23.382;2024-02-23T08:46:11;8.90;;;6.20;;
10005;SDS011;5042;42.626;23.382;2024-02-23T08:48:38;9.77;;;7.73;;
10005;SDS011;5042;42.626;23.382;2024-02-23T08:51:05;9.53;;;7.37;;
10005;SDS011;5042;42.626;23.382;2024-02-23T08:53:31;11.10;;;8.17;;
10005;SDS011;5042;42.626;23.382;2024-02-23T08:55:58;11.27;;;7.50;;
10005;SDS011;5042;42.626;23.382;2024-02-23T08:58:25;10.63;;;7.57;;
10005;SDS011;5042;42.626;23.382;2024-02-23T09:00:54;10.37;;;7.50;;
10005;SDS011;5042;42.626;23.382;2024-02-23T09:03:21;11.30;;;8.50;;
10005;SDS011;5042;42.626;23.382;2024-02-23T09:05:48;10.77;;;8.73;;
10005;SDS011;5042;42.626;23.382;2024-02-23T09:08:16;9.57;;;8.17;;
10005;SDS011;5042;42.626;23.382;2024-02-23T09:10:42;10.27;;;7.80;;
10005;SDS011;5042;42.626;23.382;2024-02-23T09:13:10;10.97;;;8.37;;
10005;SDS011;5042;42.626;23.382;2024-02-23T09:15:37;9.73;;;7.50;;
10005;SDS011;5042;42.626;23.382;2024-02-23T09:18:06;10.73;;;7.50;;
10005;SDS011;5042;42.626;23.382;2024-02-23T09:20:33;7.80;;;7.00;;
10005;SDS011;5042;42.626;23.382;2024-02-23T09:22:59;8.57;;;7.33;;
10005;SDS011;5042;42.626;23.382;2024-02-23T09:25:26;9.05;;;7.43;;
10005;SDS011;5042;42.626;23.382;2024-02-23T09:27:56;8.10;;;6.50;;
10005;SDS011;5042;42.626;23.382;2024-02-23T09:30:23;12.18;;;6.60;;
10005;SDS011;5042;42.626;23.382;2024-02-23T09:32:50;6.85;;;5.40;;
10005;SDS011;5042;42.626;23.382;2024-02-23T09:35:19;6.97;;;5.60;;
10005;SDS011;5042;42.626;23.382;2024-02-23T09:37:46;7.18;;;5.82;;
10005;SDS011;5042;42.626;23.382;2024-02-23T09:40:14;7.95;;;6.47;;
10005;SDS011;5042;42.626;23.382;2024-02-23T09:42:41;8.30;;;5.93;;
10005;SDS011;5042;42.626;23.382;2024-02-23T09:45:08;6.43;;;5.50;;
10005;SDS011;5042;42.626;23.382;2024-02-23T09:47:38;6.25;;;5.65;;
10005;SDS011;5042;42.626;23.382;2024-02-23T09:50:07;5.50;;;5.00;;
10005;SDS011;5042;42.626;23.382;2024-02-23T09:52:37;5.37;;;4.83;;
10005;SDS011;5042;42.626;23.382;2024-02-23T09:55:04;4.63;;;4.10;;
10005;SDS011;5042;42.626;23.382;2024-02-23T09:57:32;6.03;;;4.90;;
10005;SDS011;5042;42.626;23.382;2024-02-23T10:00:01;6.10;;;4.73;;
10005;SDS011;5042;42.626;23.382;2024-02-23T10:02:31;4.47;;;4.07;;
10005;SDS011;5042;42.626;23.382;2024-02-23T10:04:59;6.43;;;5.73;;
10005;SDS011;5042;42.626;23.382;2024-02-23T10:07:27;3.10;;;2.80;;
10005;SDS011;5042;42.626;23.382;2024-02-23T10:09:56;3.00;;;2.80;;
10005;SDS011;5042;42.626;23.382;2024-02-23T10:12:23;2.50;;;2.30;;
10005;SDS011;5042;42.626;23.382;2024-02-23T10:14:49;2.70;;;2.30;;
10005;SDS011;5042;42.626;23.382;2024-02-23T10:17:16;3.97;;;3.53;;
10005;SDS011;5042;42.626;23.382;2024-02-23T10:19:44;5.27;;;3.90;;
10005;SDS011;5042;42.626;23.382;2024-02-23T10:22:11;5.57;;;3.90;;
10005;SDS011;5042;42.626;23.382;2024-02-23T10:24:38;4.75;;;3.90;;
10005;SDS011;5042;42.626;23.382;2024-02-23T10:27:06;4.57;;;3.53;;
10005;SDS011;5042;42.626;23.382;2024-02-23T10:29:33;3.17;;;2.85;;
10005;SDS011;5042;42.626;23.382;2024-02-23T10:32:00;3.55;;;3.25;;
10005;SDS011;5042;42.626;23.382;2024-02-23T10:34:28;3.63;;;3.00;;
10005;SDS011;5042;42.626;23.382;2024-02-23T10:36:56;4.57;;;3.40;;
10005;SDS011;5042;42.626;23.382;2024-02-23T10:39:24;2.70;;;2.50;;
10005;SDS011;5042;42.626;23.382;2024-02-23T10:41:54;3.20;;;2.95;;
10005;SDS011;5042;42.626;23.382;2024-02-23T10:44:25;4.73;;;2.90;;
10005;SDS011;5042;42.626;23.382;2024-02-23T10:46:54;3.00;;;2.60;;
10005;SDS011;5042;42.626;23.382;2024-02-23T10:49:23;4.00;;;3.07;;
10005;SDS011;5042;42.626;23.382;2024-02-23T10:51:52;2.97;;;2.75;;
10005;SDS011;5042;42.626;23.382;2024-02-23T10:54:20;3.90;;;3.03;;
10005;SDS011;5042;42.626;23.382;2024-02-23T10:56:48;3.20;;;2.50;;
10005;SDS011;5042;42.626;23.382;2024-02-23T10:59:16;3.20;;;2.50;;
10005;SDS011;5042;42.626;23.382;2024-02-23T11:01:46;2.80;;;2.60;;
10005;SDS011;5042;42.626;23.382;2024-02-23T11:04:14;2.83;;;2.40;;
10005;SDS011;5042;42.626;23.382;2024-02-23T11:06:48;4.32;;;2.60;;
10005;SDS011;5042;42.626;23.382;2024-02-23T11:09:16;5.43;;;2.67;;
10005;SDS011;5042;42.626;23.382;2024-02-23T11:11:50;2.70;;;2.20;;
10005;SDS011;5042;42.626;23.382;2024-02-23T11:14:28;2.15;;;2.05;;
10005;SDS011;5042;42.626;23.382;2024-02-23T11:16:57;2.47;;;2.28;;
10005;SDS011;5042;42.626;23.382;2024-02-23T11:19:31;2.67;;;2.47;;
10005;SDS011;5042;42.626;23.382;2024-02-23T11:22:00;2.88;;;2.17;;
10005;SDS011;5042;42.626;23.382;2024-02-23T11:24:28;2.47;;;2.28;;
10005;SDS011;5042;42.626;23.382;2024-02-23T11:26:58;2.20;;;2.00;;
10005;SDS011;5042;42.626;23.382;2024-02-23T11:29:33;2.30;;;2.10;;
10005;SDS011;5042;42.626;23.382;2024-02-23T11:32:03;2.70;;;2.50;;
10005;SDS011;5042;42.626;23.382;2024-02-23T11:34:30;3.23;;;2.27;;
10005;SDS011;5042;42.626;23.382;2024-02-23T11:36:57;2.55;;;2.38;;
10005;SDS011;5042;42.626;23.382;2024-02-23T11:39:25;2.40;;;2.22;;
10005;SDS011;5042;42.626;23.382;2024-02-23T11:41:52;4.22;;;2.58;;
10005;SDS011;5042;42.626;23.382;2024-02-23T11:44:20;2.40;;;2.20;;
10005;SDS011;5042;42.626;23.382;2024-02-23T11:46:46;2.67;;;2.35;;
10005;SDS011;5042;42.626;23.382;2024-02-23T11:49:15;2.30;;;2.20;;
10005;SDS011;5042;42.626;23.382;2024-02-23T11:51:42;2.25;;;2.05;;
10005;SDS011;5042;42.626;23.382;2024-02-23T11:54:09;3.13;;;2.42;;
10005;SDS011;5042;42.626;23.382;2024-02-23T11:56:36;13.80;;;2.70;;
10005;SDS011;5042;42.626;23.382;2024-02-23T11:59:03;2.40;;;2.20;;
10005;SDS011;5042;42.626;23.382;2024-02-23T12:01:31;3.10;;;2.30;;
10005;SDS011;5042;42.626;23.382;2024-02-23T12:03:58;2.50;;;2.30;;
10005;SDS011;5042;42.626;23.382;2024-02-23T12:06:27;2.60;;;2.40;;
10005;SDS011;5042;42.626;23.382;2024-02-23T12:08:57;2.42;;;2.22;;
10005;SDS011;5042;42.626;23.382;2024-02-23T12:11:24;3.38;;;2.38;;
10005;SDS011;5042;42.626;23.382;2024-02-23T12:13:52;2.47;;;2.28;;
10005;SDS011;5042;42.626;23.382;2024-02-23T12:16:20;3.50;;;2.28;;
10005;SDS011;5042;42.626;23.382;2024-02-23T12:18:52;2.72;;;2.50;;
10005;SDS011;5042;42.626;23.382;2024-02-23T12:21:20;2.88;;;2.20;;
10005;SDS011;5042;42.626;23.382;2024-02-23T12:23:49;2.10;;;2.00;;
10005;SDS011;5042;42.626;23.382;2024-02-23T12:26:17;2.35;;;1.90;;
10005;SDS011;5042;42.626;23.382;2024-02-23T12:28:44;2.60;;;2.10;;
10005;SDS011;5042;42.626;23.382;2024-02-23T12:31:11;2.78;;;2.35;;
10005;SDS011;5042;42.626;23.382;2024-02-23T12:33:39;2.95;;;2.10;;
10005;SDS011;5042;42.626;23.382;2024-02-23T12:36:07;3.13;;;2.45;;
10005;SDS011;5042;42.626;23.382;2024-02-23T12:38:34;4.13;;;2.33;;
10005;SDS011;5042;42.626;23.382;2024-02-23T12:41:04;2.30;;;2.20;;
10005;SDS011;5042;42.626;23.382;2024-02-23T12:43:31;4.20;;;2.53;;
10005;SDS011;5042;42.626;23.382;2024-02-23T12:45:58;8.30;;;2.60;;
10005;SDS011;5042;42.626;23.382;2024-02-23T12:48:26;2.30;;;2.10;;
10005;SDS011;5042;42.626;23.382;2024-02-23T12:50:53;2.55;;;2.28;;
10005;SDS011;5042;42.626;23.382;2024-02-23T12:53:33;3.42;;;2.17;;
10005;SDS011;5042;42.626;23.382;2024-02-23T12:56:01;3.33;;;2.40;;
10005;SDS011;5042;42.626;23.382;2024-02-23T12:58:31;4.10;;;2.17;;
10005;SDS011;5042;42.626;23.382;2024-02-23T13:00:58;3.95;;;2.30;;
10005;SDS011;5042;42.626;23.382;2024-02-23T13:03:25;2.97;;;2.28;;
10005;SDS011;5042;42.626;23.382;2024-02-23T13:05:52;2.58;;;2.38;;
10005;SDS011;5042;42.626;23.382;2024-02-23T13:08:19;2.78;;;2.30;;
10005;SDS011;5042;42.626;23.382;2024-02-23T13:10:47;4.25;;;2.30;;
10005;SDS011;5042;42.626;23.382;2024-02-23T13:13:15;2.58;;;2.10;;
10005;SDS011;5042;42.626;23.382;2024-02-23T13:15:42;4.10;;;2.00;;
10005;SDS011;5042;42.626;23.382;2024-02-23T13:18:09;3.17;;;2.05;;
10005;SDS011;5042;42.626;23.382;2024-02-23T13:20:36;2.97;;;2.20;;
10005;SDS011;5042;42.626;23.382;2024-02-23T13:23:04;2.65;;;2.45;;
10005;SDS011;5042;42.626;23.382;2024-02-23T13:25:33;2.50;;;2.20;;
10005;SDS011;5042;42.626;23.382;2024-02-23T13:28:00;2.50;;;2.30;;
10005;SDS011;5042;42.626;23.382;2024-02-23T13:30:28;3.15;;;2.20;;
10005;SDS011;5042;42.626;23.382;2024-02-23T13:32:55;5.17;;;2.77;;
10005;SDS011;5042;42.626;23.382;2024-02-23T13:35:22;2.75;;;2.55;;
10005;SDS011;5042;42.626;23.382;2024-02-23T13:37:50;4.10;;;2.72;;
10005;SDS011;5042;42.626;23.382;2024-02-23T13:40:17;1.92;;;1.83;;
10005;SDS011;5042;42.626;23.382;2024-02-23T13:42:43;2.42;;;2.22;;
10005;SDS011;5042;42.626;23.382;2024-02-23T13:45:14;2.50;;;2.05;;
10005;SDS011;5042;42.626;23.382;2024-02-23T13:47:43;7.32;;;2.80;;
10005;SDS011;5042;42.626;23.382;2024-02-23T13:50:21;3.47;;;2.42;;
10005;SDS011;5042;42.626;23.382;2024-02-23T13:52:48;3.08;;;2.20;;
10005;SDS011;5042;42.626;23.382;2024-02-23T13:55:15;2.75;;;2.13;;
10005;SDS011;5042;42.626;23.382;2024-02-23T13:57:42;2.08;;;1.92;;
10005;SDS011;5042;42.626;23.382;2024-02-23T14:00:09;2.45;;;2.25;;
10005;SDS011;5042;42.626;23.382;2024-02-23T14:02:37;3.08;;;1.90;;
10005;SDS011;5042;42.626;23.382;2024-02-23T14:05:07;2.83;;;2.38;;
10005;SDS011;5042;42.626;23.382;2024-02-23T14:07:34;2.80;;;2.60;;
10005;SDS011;5042;42.626;23.382;2024-02-23T14:10:01;4.07;;;2.50;;
10005;SDS011;5042;42.626;23.382;2024-02-23T14:12:29;3.03;;;2.40;;
10005;SDS011;5042;42.626;23.382;2024-02-23T14:14:56;2.72;;;2.40;;
10005;SDS011;5042;42.626;23.382;2024-02-23T14:17:23;2.03;;;1.92;;
10005;SDS011;5042;42.626;23.382;2024-02-23T14:19:50;4.15;;;2.83;;
10005;SDS011;5042;42.626;23.382;2024-02-23T14:22:19;2.70;;;2.40;;
10005;SDS011;5042;42.626;23.382;2024-02-23T14:24:46;2.83;;;2.30;;
10005;SDS011;5042;42.626;23.382;2024-02-23T14:27:13;3.15;;;2.83;;
10005;SDS011;5042;42.626;23.382;2024-02-23T14:29:39;4.03;;;2.28;;
10005;SDS011;5042;42.626;23.382;2024-02-23T14:32:06;5.00;;;3.70;;
10005;SDS011;5042;42.626;23.382;2024-02-23T14:34:34;2.45;;;2.25;;